Time,TemperatureF,DewpointF,PressureIn,WindDirection,WindDirectionDegrees,WindSpeedMPH,WindSpeedGustMPH,Humidity,HourlyPrecipIn,Conditions,Clouds,dailyrainin,SoftwareType,DateUTC
2013-05-13 00:00:00,38.2,34.7,30.12,North,4,0.0,0.0,87,0.00,,SKC,0.00,VWS V14.01,2013-05-13 04:00:00,
2013-05-13 00:01:00,38.2,34.7,30.12,North,3,0.0,0.0,87,0.00,,SKC,0.00,VWS V14.01,2013-05-13 04:01:00,
2013-05-13 00:06:00,38.5,35.0,30.13,North,4,0.0,0.0,87,0.00,,SKC,0.00,VWS V14.01,2013-05-13 04:06:00,
2013-05-13 00:11:00,39.0,35.2,30.13,North,4,0.0,0.0,86,0.00,,SKC,0.00,VWS V14.01,2013-05-13 04:11:00,
2013-05-13 00:16:00,39.0,35.2,30.13,North,4,0.0,0.0,86,0.00,,SKC,0.00,VWS V14.01,2013-05-13 04:16:00,
2013-05-13 00:21:00,38.9,35.4,30.13,North,3,0.0,0.0,87,0.00,,SKC,0.00,VWS V14.01,2013-05-13 04:21:00,
2013-05-13 00:26:00,38.7,35.5,30.13,North,3,0.0,0.0,88,0.00,,SKC,0.00,VWS V14.01,2013-05-13 04:26:00,
2013-05-13 00:30:00,38.6,35.4,30.13,North,4,0.0,0.0,88,0.00,,SKC,0.00,VWS V14.01,2013-05-13 04:30:00,
2013-05-13 00:31:00,38.6,35.4,30.13,North,3,0.0,0.0,88,0.00,,SKC,0.00,VWS V14.01,2013-05-13 04:31:00,
2013-05-13 00:36:00,38.5,35.3,30.13,North,3,0.0,0.0,88,0.00,,SKC,0.00,VWS V14.01,2013-05-13 04:36:00,
2013-05-13 00:41:00,38.6,35.4,30.13,North,4,0.0,0.0,88,0.00,,SKC,0.00,VWS V14.01,2013-05-13 04:41:00,
2013-05-13 00:46:00,38.4,34.9,30.14,North,4,0.0,0.0,87,0.00,,SKC,0.00,VWS V14.01,2013-05-13 04:46:00,
2013-05-13 00:51:00,38.2,34.7,30.13,North,3,0.0,0.0,87,0.00,,SKC,0.00,VWS V14.01,2013-05-13 04:51:00,
2013-05-13 00:56:00,38.4,34.9,30.13,North,3,0.0,0.0,87,0.00,,SKC,0.00,VWS V14.01,2013-05-13 04:56:00,
2013-05-13 01:00:00,38.4,34.6,30.14,North,4,0.0,0.0,86,0.00,,SKC,0.00,VWS V14.01,2013-05-13 05:00:00,
2013-05-13 01:01:00,38.4,34.6,30.14,North,4,0.0,0.0,86,0.00,,SKC,0.00,VWS V14.01,2013-05-13 05:01:00,
2013-05-13 01:06:00,38.4,34.6,30.14,North,3,0.0,0.0,86,0.00,,SKC,0.00,VWS V14.01,2013-05-13 05:06:00,
2013-05-13 01:11:00,38.6,34.8,30.14,North,3,0.0,1.0,86,0.00,,SKC,0.00,VWS V14.01,2013-05-13 05:11:00,
2013-05-13 01:16:00,38.9,34.8,30.13,North,3,0.0,2.0,85,0.00,,SKC,0.00,VWS V14.01,2013-05-13 05:16:00,
2013-05-13 01:21:00,39.4,35.0,30.13,North,4,2.0,2.0,84,0.00,,SKC,0.00,VWS V14.01,2013-05-13 05:21:00,
2013-05-13 01:26:00,39.5,34.8,30.13,North,3,0.0,2.0,83,0.00,,SKC,0.00,VWS V14.01,2013-05-13 05:26:00,
2013-05-13 01:30:00,39.5,34.8,30.13,North,4,0.0,2.0,83,0.00,,SKC,0.00,VWS V14.01,2013-05-13 05:30:00,
2013-05-13 01:31:00,39.5,34.8,30.14,North,3,0.0,0.0,83,0.00,,SKC,0.00,VWS V14.01,2013-05-13 05:31:00,
2013-05-13 01:36:00,39.4,34.4,30.14,North,4,0.0,1.0,82,0.00,,SKC,0.00,VWS V14.01,2013-05-13 05:36:00,
2013-05-13 01:41:00,39.5,34.2,30.13,North,3,0.0,1.0,81,0.00,,SKC,0.00,VWS V14.01,2013-05-13 05:41:00,
2013-05-13 01:46:00,39.7,34.0,30.13,North,4,2.0,2.0,80,0.00,,SKC,0.00,VWS V14.01,2013-05-13 05:46:00,
2013-05-13 01:51:00,40.0,33.7,30.14,NE,40,0.0,2.0,78,0.00,,SKC,0.00,VWS V14.01,2013-05-13 05:51:00,
2013-05-13 01:56:00,40.0,34.0,30.14,NE,39,0.0,2.0,79,0.00,,SKC,0.00,VWS V14.01,2013-05-13 05:56:00,
2013-05-13 02:00:00,39.7,34.0,30.13,NE,39,0.0,2.0,80,0.00,,SKC,0.00,VWS V14.01,2013-05-13 06:00:00,
2013-05-13 02:01:00,39.7,34.0,30.13,NE,40,0.0,0.0,80,0.00,,SKC,0.00,VWS V14.01,2013-05-13 06:01:00,
2013-05-13 02:06:00,39.3,33.7,30.13,NW,322,2.0,2.0,80,0.00,,SKC,0.00,VWS V14.01,2013-05-13 06:06:00,
2013-05-13 02:11:00,38.6,34.2,30.13,NW,316,0.0,3.0,84,0.00,,SKC,0.00,VWS V14.01,2013-05-13 06:11:00,
2013-05-13 02:16:00,37.9,33.8,30.13,NE,51,0.0,3.0,85,0.00,,SKC,0.00,VWS V14.01,2013-05-13 06:16:00,
2013-05-13 02:21:00,37.6,33.8,30.13,ESE,105,0.0,3.0,86,0.00,,SKC,0.00,VWS V14.01,2013-05-13 06:21:00,
2013-05-13 02:26:00,37.1,33.9,30.13,North,5,1.0,3.0,88,0.00,,SKC,0.00,VWS V14.01,2013-05-13 06:26:00,
2013-05-13 02:30:00,36.9,33.7,30.13,North,5,0.0,3.0,88,0.00,,SKC,0.00,VWS V14.01,2013-05-13 06:30:00,
2013-05-13 02:31:00,36.9,33.7,30.13,North,5,0.0,1.0,88,0.00,,SKC,0.00,VWS V14.01,2013-05-13 06:31:00,
2013-05-13 02:36:00,37.0,33.8,30.13,NNE,17,0.0,1.0,88,0.00,,SKC,0.00,VWS V14.01,2013-05-13 06:36:00,
2013-05-13 02:41:00,36.8,33.9,30.14,NNE,17,0.0,1.0,89,0.00,,SKC,0.00,VWS V14.01,2013-05-13 06:41:00,
2013-05-13 02:46:00,36.7,33.8,30.14,NNE,16,0.0,1.0,89,0.00,,SKC,0.00,VWS V14.01,2013-05-13 06:46:00,
2013-05-13 02:51:00,36.4,33.5,30.14,NNE,18,0.0,1.0,89,0.00,,SKC,0.00,VWS V14.01,2013-05-13 06:51:00,
2013-05-13 02:56:00,36.2,33.6,30.14,NNE,17,0.0,1.0,90,0.00,,SKC,0.00,VWS V14.01,2013-05-13 06:56:00,
2013-05-13 03:00:00,36.0,33.6,30.14,NNE,18,1.0,1.0,91,0.00,,SKC,0.00,VWS V14.01,2013-05-13 07:00:00,
2013-05-13 03:01:00,36.0,33.6,30.14,NNE,18,0.0,1.0,91,0.00,,SKC,0.00,VWS V14.01,2013-05-13 07:01:00,
2013-05-13 03:06:00,35.9,33.5,30.14,NNE,17,0.0,1.0,91,0.00,,SKC,0.00,VWS V14.01,2013-05-13 07:06:00,
2013-05-13 03:11:00,35.9,33.5,30.14,NNE,18,1.0,1.0,91,0.00,,SKC,0.00,VWS V14.01,2013-05-13 07:11:00,
2013-05-13 03:16:00,35.7,33.3,30.14,NNE,17,0.0,1.0,91,0.00,,SKC,0.00,VWS V14.01,2013-05-13 07:16:00,
2013-05-13 03:21:00,35.6,33.2,30.14,NNE,18,0.0,1.0,91,0.00,,SKC,0.00,VWS V14.01,2013-05-13 07:21:00,
2013-05-13 03:26:00,36.1,33.5,30.14,NE,37,0.0,2.0,90,0.00,,SKC,0.00,VWS V14.01,2013-05-13 07:26:00,
2013-05-13 03:30:00,36.5,33.3,30.15,NE,37,0.0,2.0,88,0.00,,SKC,0.00,VWS V14.01,2013-05-13 07:30:00,
2013-05-13 03:31:00,36.5,33.3,30.14,NE,37,0.0,0.0,88,0.00,,SKC,0.00,VWS V14.01,2013-05-13 07:31:00,
2013-05-13 03:36:00,36.7,33.2,30.14,NE,37,0.0,1.0,87,0.00,,SKC,0.00,VWS V14.01,2013-05-13 07:36:00,
2013-05-13 03:41:00,36.8,33.3,30.14,NE,37,0.0,1.0,87,0.00,,SKC,0.00,VWS V14.01,2013-05-13 07:41:00,
2013-05-13 03:46:00,36.8,33.0,30.14,ENE,63,2.0,3.0,86,0.00,,SKC,0.00,VWS V14.01,2013-05-13 07:46:00,
2013-05-13 03:51:00,37.2,33.1,30.14,East,79,2.0,3.0,85,0.00,,SKC,0.00,VWS V14.01,2013-05-13 07:51:00,
2013-05-13 03:56:00,37.4,33.0,30.14,East,80,0.0,3.0,84,0.00,,SKC,0.00,VWS V14.01,2013-05-13 07:56:00,
2013-05-13 04:00:00,37.4,33.0,30.14,East,80,0.0,3.0,84,0.00,,SKC,0.00,VWS V14.01,2013-05-13 08:00:00,
2013-05-13 04:01:00,37.4,33.0,30.14,East,80,0.0,1.0,84,0.00,,SKC,0.00,VWS V14.01,2013-05-13 08:01:00,
2013-05-13 04:06:00,37.5,33.1,30.14,East,81,1.0,1.0,84,0.00,,SKC,0.00,VWS V14.01,2013-05-13 08:06:00,
2013-05-13 04:11:00,37.4,33.0,30.14,East,93,2.0,2.0,84,0.00,,SKC,0.00,VWS V14.01,2013-05-13 08:11:00,
2013-05-13 04:16:00,37.5,33.1,30.15,East,93,0.0,2.0,84,0.00,,SKC,0.00,VWS V14.01,2013-05-13 08:16:00,
2013-05-13 04:21:00,37.1,32.7,30.15,East,94,0.0,2.0,84,0.00,,SKC,0.00,VWS V14.01,2013-05-13 08:21:00,
2013-05-13 04:26:00,37.0,32.6,30.15,East,94,1.0,2.0,84,0.00,,SKC,0.00,VWS V14.01,2013-05-13 08:26:00,
2013-05-13 04:30:00,37.4,32.7,30.15,NE,45,0.0,2.0,83,0.00,,SKC,0.00,VWS V14.01,2013-05-13 08:30:00,
2013-05-13 04:31:00,37.5,32.8,30.15,NE,46,0.0,1.0,83,0.00,,SKC,0.00,VWS V14.01,2013-05-13 08:31:00,
2013-05-13 04:36:00,37.6,32.6,30.15,NE,46,0.0,1.0,82,0.00,,SKC,0.00,VWS V14.01,2013-05-13 08:36:00,
2013-05-13 04:41:00,37.8,32.5,30.15,NE,45,0.0,1.0,81,0.00,,SKC,0.00,VWS V14.01,2013-05-13 08:41:00,
2013-05-13 04:46:00,37.8,32.8,30.15,NE,45,0.0,2.0,82,0.00,,SKC,0.00,VWS V14.01,2013-05-13 08:46:00,
2013-05-13 04:51:00,37.6,32.6,30.16,NE,46,0.0,2.0,82,0.00,,SKC,0.00,VWS V14.01,2013-05-13 08:51:00,
2013-05-13 04:56:00,37.1,32.7,30.16,NE,46,0.0,2.0,84,0.00,,SKC,0.00,VWS V14.01,2013-05-13 08:56:00,
2013-05-13 05:00:00,36.5,32.4,30.16,NE,45,0.0,2.0,85,0.00,,SKC,0.00,VWS V14.01,2013-05-13 09:00:00,
2013-05-13 05:01:00,36.5,32.7,30.16,NE,45,0.0,0.0,86,0.00,,SKC,0.00,VWS V14.01,2013-05-13 09:01:00,
2013-05-13 05:06:00,36.2,32.7,30.16,NE,45,0.0,0.0,87,0.00,,SKC,0.00,VWS V14.01,2013-05-13 09:06:00,
2013-05-13 05:11:00,36.0,32.5,30.16,NE,51,0.0,2.0,87,0.00,,SKC,0.00,VWS V14.01,2013-05-13 09:11:00,
2013-05-13 05:16:00,36.1,32.9,30.16,NE,51,0.0,2.0,88,0.00,,SKC,0.00,VWS V14.01,2013-05-13 09:16:00,
2013-05-13 05:21:00,36.2,33.0,30.16,NE,55,2.0,2.0,88,0.00,,SKC,0.00,VWS V14.01,2013-05-13 09:21:00,
2013-05-13 05:26:00,36.3,33.1,30.16,NE,55,0.0,2.0,88,0.00,,SKC,0.00,VWS V14.01,2013-05-13 09:26:00,
2013-05-13 05:30:00,36.6,33.1,30.16,NE,43,1.0,3.0,87,0.00,,SKC,0.00,VWS V14.01,2013-05-13 09:30:00,
2013-05-13 05:31:00,36.6,32.8,30.16,NE,43,0.0,1.0,86,0.00,,SKC,0.00,VWS V14.01,2013-05-13 09:31:00,
2013-05-13 05:36:00,36.8,33.0,30.16,North,8,0.0,3.0,86,0.00,,SKC,0.00,VWS V14.01,2013-05-13 09:36:00,
2013-05-13 05:41:00,37.2,33.1,30.16,NNE,19,1.0,3.0,85,0.00,,SKC,0.00,VWS V14.01,2013-05-13 09:41:00,
2013-05-13 05:46:00,37.7,33.0,30.16,NNE,23,0.0,3.0,83,0.00,,SKC,0.00,VWS V14.01,2013-05-13 09:46:00,
2013-05-13 05:51:00,37.9,32.9,30.16,NNE,23,0.0,3.0,82,0.00,,SKC,0.00,VWS V14.01,2013-05-13 09:51:00,
2013-05-13 05:56:00,38.5,32.9,30.16,NNE,23,0.0,3.0,80,0.00,,SKC,0.00,VWS V14.01,2013-05-13 09:56:00,
2013-05-13 06:00:00,38.7,33.7,30.16,NNE,23,0.0,3.0,82,0.00,,SKC,0.00,VWS V14.01,2013-05-13 10:00:00,
2013-05-13 06:01:00,38.6,33.6,30.16,NNE,23,0.0,0.0,82,0.00,,SKC,0.00,VWS V14.01,2013-05-13 10:01:00,
2013-05-13 06:06:00,37.8,33.4,30.17,NNE,23,0.0,1.0,84,0.00,,SKC,0.00,VWS V14.01,2013-05-13 10:06:00,
2013-05-13 06:11:00,37.3,33.5,30.17,NNE,23,0.0,1.0,86,0.00,,SKC,0.00,VWS V14.01,2013-05-13 10:11:00,
2013-05-13 06:16:00,36.9,33.4,30.17,NNE,23,0.0,1.0,87,0.00,,SKC,0.00,VWS V14.01,2013-05-13 10:16:00,
2013-05-13 06:21:00,36.6,33.4,30.18,NNE,23,0.0,1.0,88,0.00,,SKC,0.00,VWS V14.01,2013-05-13 10:21:00,
2013-05-13 06:26:00,36.3,33.1,30.18,NNE,23,0.0,1.0,88,0.00,,SKC,0.00,VWS V14.01,2013-05-13 10:26:00,
2013-05-13 06:30:00,36.1,33.2,30.18,NNE,23,1.0,1.0,89,0.00,,SKC,0.00,VWS V14.01,2013-05-13 10:30:00,
2013-05-13 06:31:00,36.1,33.2,30.19,NNE,23,1.0,1.0,89,0.00,,SKC,0.00,VWS V14.01,2013-05-13 10:31:00,
2013-05-13 06:36:00,36.0,33.1,30.19,NNE,23,0.0,1.0,89,0.00,,SKC,0.00,VWS V14.01,2013-05-13 10:36:00,
2013-05-13 06:41:00,35.8,33.2,30.19,NNE,23,0.0,1.0,90,0.00,,SKC,0.00,VWS V14.01,2013-05-13 10:41:00,
2013-05-13 06:46:00,35.6,33.2,30.19,NNE,23,0.0,1.0,91,0.00,,SKC,0.00,VWS V14.01,2013-05-13 10:46:00,
2013-05-13 06:51:00,35.5,33.1,30.20,NNE,23,0.0,1.0,91,0.00,,SKC,0.00,VWS V14.01,2013-05-13 10:51:00,
2013-05-13 06:56:00,35.3,32.9,30.20,NNE,23,0.0,1.0,91,0.00,,SKC,0.00,VWS V14.01,2013-05-13 10:56:00,
2013-05-13 07:00:00,35.1,33.0,30.20,NNE,23,0.0,1.0,92,0.00,,SKC,0.00,VWS V14.01,2013-05-13 11:00:00,
2013-05-13 07:01:00,35.1,33.0,30.20,NNE,23,0.0,0.0,92,0.00,,SKC,0.00,VWS V14.01,2013-05-13 11:01:00,
2013-05-13 07:06:00,35.1,33.0,30.20,NNE,23,0.0,0.0,92,0.00,,SKC,0.00,VWS V14.01,2013-05-13 11:06:00,
2013-05-13 07:11:00,35.0,32.9,30.20,NNE,23,0.0,0.0,92,0.00,,SKC,0.00,VWS V14.01,2013-05-13 11:11:00,
2013-05-13 07:16:00,34.9,33.1,30.20,NNE,23,0.0,0.0,93,0.00,,SKC,0.00,VWS V14.01,2013-05-13 11:16:00,
2013-05-13 07:21:00,34.9,33.1,30.20,NNE,23,0.0,0.0,93,0.00,,SKC,0.00,VWS V14.01,2013-05-13 11:21:00,
2013-05-13 07:26:00,34.9,33.1,30.21,NNE,23,0.0,0.0,93,0.00,,SKC,0.00,VWS V14.01,2013-05-13 11:26:00,
2013-05-13 07:30:00,35.1,33.3,30.21,NNE,23,0.0,1.0,93,0.00,,SKC,0.00,VWS V14.01,2013-05-13 11:30:00,
2013-05-13 07:31:00,35.1,33.3,30.21,NNE,23,0.0,1.0,93,0.00,,SKC,0.00,VWS V14.01,2013-05-13 11:31:00,
2013-05-13 07:36:00,35.4,33.8,30.21,NNE,23,0.0,1.0,94,0.00,,SKC,0.00,VWS V14.01,2013-05-13 11:36:00,
2013-05-13 07:41:00,35.9,34.3,30.21,NNE,23,0.0,1.0,94,0.00,,SKC,0.00,VWS V14.01,2013-05-13 11:41:00,
2013-05-13 07:46:00,36.4,34.6,30.22,NNE,23,0.0,1.0,93,0.00,,SKC,0.00,VWS V14.01,2013-05-13 11:46:00,
2013-05-13 07:50:00,36.8,34.4,30.22,NNE,23,0.0,1.0,91,0.00,,SKC,0.00,VWS V14.01,2013-05-13 11:50:00,
2013-05-13 07:55:00,37.3,34.4,30.22,NNE,13,1.0,1.0,89,0.00,,SKC,0.00,VWS V14.01,2013-05-13 11:55:00,
2013-05-13 08:00:00,38.1,34.9,30.22,NNE,15,1.0,1.0,88,0.00,,SKC,0.00,VWS V14.01,2013-05-13 12:00:00,
2013-05-13 08:06:00,39.2,35.4,30.22,NNE,13,1.0,1.0,86,0.00,,SKC,0.00,VWS V14.01,2013-05-13 12:06:00,
2013-05-13 08:11:00,40.5,36.0,30.23,NNE,13,0.0,1.0,84,0.00,,SKC,0.00,VWS V14.01,2013-05-13 12:11:00,
2013-05-13 08:16:00,41.7,36.0,30.23,NNW,342,1.0,2.0,80,0.00,,SKC,0.00,VWS V14.01,2013-05-13 12:16:00,
2013-05-13 08:21:00,42.6,35.2,30.23,NNE,12,2.0,4.0,75,0.00,,SKC,0.00,VWS V14.01,2013-05-13 12:21:00,
2013-05-13 08:25:00,43.3,35.2,30.23,NNW,338,2.0,4.0,73,0.00,,SKC,0.00,VWS V14.01,2013-05-13 12:25:00,
2013-05-13 08:30:00,44.1,36.7,30.23,North,10,4.0,4.0,75,0.00,,SKC,0.00,VWS V14.01,2013-05-13 12:30:00,
2013-05-13 08:35:00,44.3,34.8,30.23,NNW,329,1.0,6.0,69,0.00,,SKC,0.00,VWS V14.01,2013-05-13 12:35:00,
2013-05-13 08:41:00,44.6,35.1,30.23,NNW,342,0.0,6.0,69,0.00,,SKC,0.00,VWS V14.01,2013-05-13 12:41:00,
2013-05-13 08:46:00,44.9,34.6,30.23,NE,39,2.0,6.0,67,0.00,,SKC,0.00,VWS V14.01,2013-05-13 12:46:00,
2013-05-13 08:51:00,45.3,35.0,30.23,North,360,4.0,6.0,67,0.00,,SKC,0.00,VWS V14.01,2013-05-13 12:51:00,
2013-05-13 08:56:00,45.4,35.1,30.24,NNE,18,3.0,6.0,67,0.00,,SKC,0.00,VWS V14.01,2013-05-13 12:56:00,
2013-05-13 09:00:00,45.8,35.1,30.24,NNW,345,3.0,6.0,66,0.00,,SKC,0.00,VWS V14.01,2013-05-13 13:00:00,
2013-05-13 09:01:00,45.9,34.8,30.24,North,353,3.0,3.0,65,0.00,,SKC,0.00,VWS V14.01,2013-05-13 13:01:00,
2013-05-13 09:06:00,46.2,34.3,30.24,NW,317,5.0,8.0,63,0.00,,SKC,0.00,VWS V14.01,2013-05-13 13:06:00,
2013-05-13 09:11:00,46.5,33.8,30.24,NNW,338,2.0,8.0,61,0.00,,SKC,0.00,VWS V14.01,2013-05-13 13:11:00,
2013-05-13 09:16:00,46.7,34.4,30.24,North,353,4.0,8.0,62,0.00,,SKC,0.00,VWS V14.01,2013-05-13 13:16:00,
2013-05-13 09:21:00,47.2,34.9,30.24,NNE,22,4.0,8.0,62,0.00,,SKC,0.00,VWS V14.01,2013-05-13 13:21:00,
2013-05-13 09:26:00,47.4,33.8,30.24,North,355,3.0,8.0,59,0.00,,SKC,0.00,VWS V14.01,2013-05-13 13:26:00,
2013-05-13 09:30:00,47.7,34.9,30.24,WSW,250,1.0,8.0,61,0.00,,SKC,0.00,VWS V14.01,2013-05-13 13:30:00,
2013-05-13 09:31:00,47.8,34.6,30.24,ENE,57,1.0,2.0,60,0.00,,SKC,0.00,VWS V14.01,2013-05-13 13:31:00,
2013-05-13 09:36:00,48.2,35.0,30.24,NNW,342,3.0,6.0,60,0.00,,SKC,0.00,VWS V14.01,2013-05-13 13:36:00,
2013-05-13 09:41:00,48.3,35.1,30.24,North,4,4.0,7.0,60,0.00,,SKC,0.00,VWS V14.01,2013-05-13 13:41:00,
2013-05-13 09:46:00,48.6,34.1,30.24,North,11,2.0,8.0,57,0.00,,SKC,0.00,VWS V14.01,2013-05-13 13:46:00,
2013-05-13 09:51:00,48.9,32.5,30.24,North,6,3.0,11.0,53,0.00,,SKC,0.00,VWS V14.01,2013-05-13 13:51:00,
2013-05-13 09:56:00,48.9,32.5,30.25,NE,41,9.0,14.0,53,0.00,,SKC,0.00,VWS V14.01,2013-05-13 13:56:00,
2013-05-13 10:00:00,48.9,31.6,30.25,ENE,69,6.0,14.0,51,0.00,,SKC,0.00,VWS V14.01,2013-05-13 14:00:00,
2013-05-13 10:01:00,48.8,31.5,30.25,NNE,18,10.0,10.0,51,0.00,,SKC,0.00,VWS V14.01,2013-05-13 14:01:00,
2013-05-13 10:06:00,48.8,30.5,30.25,NNW,340,7.0,14.0,49,0.00,,SKC,0.00,VWS V14.01,2013-05-13 14:06:00,
2013-05-13 10:11:00,49.1,32.2,30.25,North,8,4.0,14.0,52,0.00,,SKC,0.00,VWS V14.01,2013-05-13 14:11:00,
2013-05-13 10:16:00,49.3,31.0,30.25,NNW,345,3.0,14.0,49,0.00,,SKC,0.00,VWS V14.01,2013-05-13 14:16:00,
2013-05-13 10:21:00,49.7,31.3,30.25,West,278,8.0,14.0,49,0.00,,SKC,0.00,VWS V14.01,2013-05-13 14:21:00,
2013-05-13 10:26:00,50.1,31.2,30.25,WSW,238,3.0,14.0,48,0.00,,SKC,0.00,VWS V14.01,2013-05-13 14:26:00,
2013-05-13 10:30:00,50.1,30.7,30.25,WSW,252,3.0,14.0,47,0.00,,SKC,0.00,VWS V14.01,2013-05-13 14:30:00,
2013-05-13 10:31:00,50.1,30.7,30.25,WNW,285,3.0,3.0,47,0.00,,SKC,0.00,VWS V14.01,2013-05-13 14:31:00,
2013-05-13 10:36:00,50.1,30.1,30.25,West,264,1.0,9.0,46,0.00,,SKC,0.00,VWS V14.01,2013-05-13 14:36:00,
2013-05-13 10:41:00,50.4,31.0,30.25,NNW,333,6.0,10.0,47,0.00,,SKC,0.00,VWS V14.01,2013-05-13 14:41:00,
2013-05-13 10:46:00,50.4,31.0,30.25,North,353,7.0,11.0,47,0.00,,SKC,0.00,VWS V14.01,2013-05-13 14:46:00,
2013-05-13 10:51:00,50.7,31.2,30.25,West,259,4.0,11.0,47,0.00,,SKC,0.00,VWS V14.01,2013-05-13 14:51:00,
2013-05-13 10:56:00,50.6,32.2,30.25,North,359,2.0,11.0,49,0.00,,SKC,0.00,VWS V14.01,2013-05-13 14:56:00,
2013-05-13 11:00:00,51.2,31.1,30.25,NW,319,0.0,11.0,46,0.00,,SKC,0.00,VWS V14.01,2013-05-13 15:00:00,
2013-05-13 11:01:00,51.2,31.1,30.25,WNW,288,6.0,6.0,46,0.00,,SKC,0.00,VWS V14.01,2013-05-13 15:01:00,
2013-05-13 11:05:00,51.4,30.8,30.25,South,191,3.0,13.0,45,0.00,,SKC,0.00,VWS V14.01,2013-05-13 15:05:00,
2013-05-13 11:11:00,51.6,32.0,30.25,SW,233,0.0,13.0,47,0.00,,SKC,0.00,VWS V14.01,2013-05-13 15:11:00,
2013-05-13 11:15:00,52.0,30.8,30.25,NNW,340,8.0,13.0,44,0.00,,SKC,0.00,VWS V14.01,2013-05-13 15:15:00,
2013-05-13 11:20:00,52.0,30.2,30.25,NE,36,4.0,13.0,43,0.00,,SKC,0.00,VWS V14.01,2013-05-13 15:20:00,
2013-05-13 11:25:00,52.1,30.3,30.26,WNW,298,3.0,13.0,43,0.00,,SKC,0.00,VWS V14.01,2013-05-13 15:25:00,
2013-05-13 11:30:00,52.4,31.1,30.25,North,9,14.0,17.0,44,0.00,,SKC,0.00,VWS V14.01,2013-05-13 15:30:00,
2013-05-13 11:35:00,52.2,30.4,30.25,ENE,71,3.0,17.0,43,0.00,,SKC,0.00,VWS V14.01,2013-05-13 15:35:00,
2013-05-13 11:40:00,52.6,29.0,30.25,NNE,12,6.0,17.0,40,0.00,,SKC,0.00,VWS V14.01,2013-05-13 15:40:00,
2013-05-13 11:45:00,52.7,31.4,30.25,NNW,346,5.0,17.0,44,0.00,,SKC,0.00,VWS V14.01,2013-05-13 15:45:00,
2013-05-13 11:50:00,52.8,30.9,30.25,NNW,342,3.0,17.0,43,0.00,,SKC,0.00,VWS V14.01,2013-05-13 15:50:00,
2013-05-13 11:55:00,52.9,28.6,30.25,West,278,5.0,17.0,39,0.00,,SKC,0.00,VWS V14.01,2013-05-13 15:55:00,
2013-05-13 12:00:00,53.0,30.5,30.25,North,6,6.0,6.0,42,0.00,,SKC,0.00,VWS V14.01,2013-05-13 16:00:00,
2013-05-13 12:05:00,53.1,28.8,30.25,NNW,345,5.0,12.0,39,0.00,,SKC,0.00,VWS V14.01,2013-05-13 16:05:00,
2013-05-13 12:10:00,53.2,30.1,30.24,NNE,15,7.0,13.0,41,0.00,,SKC,0.00,VWS V14.01,2013-05-13 16:10:00,
2013-05-13 12:15:00,53.3,30.2,30.24,NE,34,6.0,13.0,41,0.00,,SKC,0.00,VWS V14.01,2013-05-13 16:15:00,
2013-05-13 12:20:00,53.3,29.0,30.24,WNW,301,3.0,13.0,39,0.00,,SKC,0.00,VWS V14.01,2013-05-13 16:20:00,
2013-05-13 12:25:00,53.4,28.5,30.24,NW,311,6.0,13.0,38,0.00,,SKC,0.00,VWS V14.01,2013-05-13 16:25:00,
2013-05-13 12:30:00,53.3,27.7,30.24,NNW,346,2.0,3.0,37,0.00,,SKC,0.00,VWS V14.01,2013-05-13 16:30:00,
2013-05-13 12:35:00,53.6,29.9,30.24,NNE,18,15.0,17.0,40,0.00,,SKC,0.00,VWS V14.01,2013-05-13 16:35:00,
2013-05-13 12:40:00,53.9,31.4,30.24,NNE,30,5.0,17.0,42,0.00,,SKC,0.00,VWS V14.01,2013-05-13 16:40:00,
2013-05-13 12:45:00,54.0,29.0,30.24,WNW,293,7.0,17.0,38,0.00,,SKC,0.00,VWS V14.01,2013-05-13 16:45:00,
2013-05-13 12:50:00,54.2,29.8,30.24,WNW,294,2.0,17.0,39,0.00,,SKC,0.00,VWS V14.01,2013-05-13 16:50:00,
2013-05-13 12:55:00,54.6,27.5,30.23,NNW,334,7.0,17.0,35,0.00,,SKC,0.00,VWS V14.01,2013-05-13 16:55:00,
2013-05-13 13:00:00,55.0,29.2,30.23,NNW,347,6.0,17.0,37,0.00,,SKC,0.00,VWS V14.01,2013-05-13 17:00:00,
2013-05-13 13:05:00,54.7,29.6,30.23,NW,318,6.0,16.0,38,0.00,,SKC,0.00,VWS V14.01,2013-05-13 17:05:00,
2013-05-13 13:10:00,55.3,34.3,30.23,NW,311,3.0,16.0,45,0.00,,SKC,0.00,VWS V14.01,2013-05-13 17:10:00,
2013-05-13 13:15:00,55.2,30.7,30.23,NE,36,10.0,16.0,39,0.00,,SKC,0.00,VWS V14.01,2013-05-13 17:15:00,
2013-05-13 13:20:00,55.3,28.8,30.23,West,276,3.0,16.0,36,0.00,,SKC,0.00,VWS V14.01,2013-05-13 17:20:00,
2013-05-13 13:25:00,55.8,29.3,30.22,NE,51,8.0,16.0,36,0.00,,SKC,0.00,VWS V14.01,2013-05-13 17:25:00,
2013-05-13 13:30:00,55.4,28.9,30.22,NW,323,6.0,16.0,36,0.00,,SKC,0.00,VWS V14.01,2013-05-13 17:30:00,
2013-05-13 13:35:00,55.8,29.9,30.22,WNW,301,6.0,9.0,37,0.00,,SKC,0.00,VWS V14.01,2013-05-13 17:35:00,
2013-05-13 13:40:00,56.2,31.6,30.22,NW,322,4.0,10.0,39,0.00,,SKC,0.00,VWS V14.01,2013-05-13 17:40:00,
2013-05-13 13:45:00,56.2,32.8,30.21,NNE,19,13.0,13.0,41,0.00,,SKC,0.00,VWS V14.01,2013-05-13 17:45:00,
2013-05-13 13:50:00,56.3,31.7,30.21,NE,53,5.0,13.0,39,0.00,,SKC,0.00,VWS V14.01,2013-05-13 17:50:00,
2013-05-13 13:55:00,56.8,32.1,30.21,NE,41,9.0,13.0,39,0.00,,SKC,0.00,VWS V14.01,2013-05-13 17:55:00,
2013-05-13 14:00:00,56.9,30.9,30.21,ENE,68,9.0,14.0,37,0.00,,SKC,0.00,VWS V14.01,2013-05-13 18:00:00,
2013-05-13 14:05:00,56.6,27.1,30.21,NE,53,6.0,16.0,32,0.00,,SKC,0.00,VWS V14.01,2013-05-13 18:05:00,
2013-05-13 14:10:00,56.7,29.4,30.21,NNE,27,10.0,18.0,35,0.00,,SKC,0.00,VWS V14.01,2013-05-13 18:10:00,
2013-05-13 14:15:00,56.5,29.9,30.21,ENE,57,11.0,18.0,36,0.00,,SKC,0.00,VWS V14.01,2013-05-13 18:15:00,
2013-05-13 14:20:00,56.5,30.6,30.20,NNE,16,11.0,18.0,37,0.00,,SKC,0.00,VWS V14.01,2013-05-13 18:20:00,
2013-05-13 14:25:00,56.9,28.8,30.20,NNW,335,4.0,18.0,34,0.00,,SKC,0.00,VWS V14.01,2013-05-13 18:25:00,
2013-05-13 14:30:00,57.0,30.3,30.20,North,8,16.0,18.0,36,0.00,,SKC,0.00,VWS V14.01,2013-05-13 18:30:00,
2013-05-13 14:35:00,56.8,28.0,30.21,North,6,6.0,16.0,33,0.00,,SKC,0.00,VWS V14.01,2013-05-13 18:35:00,
2013-05-13 14:40:00,57.0,29.6,30.20,NW,306,7.0,16.0,35,0.00,,SKC,0.00,VWS V14.01,2013-05-13 18:40:00,
2013-05-13 14:45:00,57.0,27.5,30.20,NE,44,7.0,16.0,32,0.00,,SKC,0.00,VWS V14.01,2013-05-13 18:45:00,
2013-05-13 14:50:00,57.0,27.5,30.20,North,6,8.0,21.0,32,0.00,,SKC,0.00,VWS V14.01,2013-05-13 18:50:00,
2013-05-13 14:55:00,57.3,29.2,30.20,NNW,334,8.0,21.0,34,0.00,,SKC,0.00,VWS V14.01,2013-05-13 18:55:00,
2013-05-13 15:00:00,57.2,31.2,30.20,North,4,11.0,21.0,37,0.00,,SKC,0.00,VWS V14.01,2013-05-13 19:00:00,
2013-05-13 15:05:00,57.2,29.8,30.19,North,358,11.0,12.0,35,0.00,,SKC,0.00,VWS V14.01,2013-05-13 19:05:00,
2013-05-13 15:10:00,57.3,29.2,30.20,NW,322,6.0,14.0,34,0.00,,SKC,0.00,VWS V14.01,2013-05-13 19:10:00,
2013-05-13 15:15:00,57.4,30.7,30.19,NE,34,7.0,16.0,36,0.00,,SKC,0.00,VWS V14.01,2013-05-13 19:15:00,
2013-05-13 15:20:00,57.4,29.3,30.19,North,359,7.0,16.0,34,0.00,,SKC,0.00,VWS V14.01,2013-05-13 19:20:00,
2013-05-13 15:25:00,57.2,29.1,30.19,North,5,10.0,16.0,34,0.00,,SKC,0.00,VWS V14.01,2013-05-13 19:25:00,
2013-05-13 15:30:00,57.1,29.7,30.19,North,8,10.0,16.0,35,0.00,,SKC,0.00,VWS V14.01,2013-05-13 19:30:00,
2013-05-13 15:35:00,57.5,28.6,30.19,West,271,3.0,14.0,33,0.00,,SKC,0.00,VWS V14.01,2013-05-13 19:35:00,
2013-05-13 15:40:00,57.7,31.6,30.18,NE,45,11.0,14.0,37,0.00,,SKC,0.00,VWS V14.01,2013-05-13 19:40:00,
2013-05-13 15:45:00,57.9,31.1,30.18,ENE,57,11.0,15.0,36,0.00,,SKC,0.00,VWS V14.01,2013-05-13 19:45:00,
2013-05-13 15:50:00,58.1,32.0,30.18,ENE,60,7.0,16.0,37,0.00,,SKC,0.00,VWS V14.01,2013-05-13 19:50:00,
2013-05-13 15:55:00,58.1,30.6,30.18,WNW,285,6.0,16.0,35,0.00,,SKC,0.00,VWS V14.01,2013-05-13 19:55:00,
2013-05-13 16:00:00,58.3,31.5,30.18,NNW,328,7.0,16.0,36,0.00,,SKC,0.00,VWS V14.01,2013-05-13 20:00:00,
2013-05-13 16:05:00,58.1,29.9,30.18,NW,322,10.0,14.0,34,0.00,,SKC,0.00,VWS V14.01,2013-05-13 20:05:00,
2013-05-13 16:10:00,58.2,31.4,30.18,NE,36,8.0,14.0,36,0.00,,SKC,0.00,VWS V14.01,2013-05-13 20:10:00,
2013-05-13 16:15:00,58.2,30.0,30.17,North,359,12.0,19.0,34,0.00,,SKC,0.00,VWS V14.01,2013-05-13 20:15:00,
2013-05-13 16:20:00,57.9,29.7,30.18,WNW,289,5.0,19.0,34,0.00,,SKC,0.00,VWS V14.01,2013-05-13 20:20:00,
2013-05-13 16:25:00,57.7,28.8,30.17,NNE,30,10.0,22.0,33,0.00,,SKC,0.00,VWS V14.01,2013-05-13 20:25:00,
2013-05-13 16:30:00,57.9,30.4,30.17,NE,53,4.0,22.0,35,0.00,,SKC,0.00,VWS V14.01,2013-05-13 20:30:00,
2013-05-13 16:35:00,58.2,30.7,30.17,NNE,22,13.0,18.0,35,0.00,,SKC,0.00,VWS V14.01,2013-05-13 20:35:00,
2013-05-13 16:40:00,57.9,30.4,30.17,NNW,335,15.0,20.0,35,0.00,,SKC,0.00,VWS V14.01,2013-05-13 20:40:00,
2013-05-13 16:45:00,58.3,29.3,30.17,NW,326,8.0,20.0,33,0.00,,SKC,0.00,VWS V14.01,2013-05-13 20:45:00,
2013-05-13 16:50:00,58.5,29.5,30.17,North,5,8.0,20.0,33,0.00,,SKC,0.00,VWS V14.01,2013-05-13 20:50:00,
2013-05-13 16:55:00,58.5,30.2,30.17,North,356,14.0,20.0,34,0.00,,SKC,0.00,VWS V14.01,2013-05-13 20:55:00,
2013-05-13 17:00:00,57.9,27.5,30.17,NNW,347,12.0,20.0,31,0.00,,SKC,0.00,VWS V14.01,2013-05-13 21:00:00,
2013-05-13 17:05:00,57.9,30.4,30.17,NNW,342,3.0,11.0,35,0.00,,SKC,0.00,VWS V14.01,2013-05-13 21:05:00,
2013-05-13 17:10:00,57.5,29.4,30.17,NNW,346,10.0,17.0,34,0.00,,SKC,0.00,VWS V14.01,2013-05-13 21:10:00,
2013-05-13 17:15:00,57.4,30.0,30.17,North,360,9.0,17.0,35,0.00,,SKC,0.00,VWS V14.01,2013-05-13 21:15:00,
2013-05-13 17:20:00,57.3,31.3,30.18,North,350,5.0,17.0,37,0.00,,SKC,0.00,VWS V14.01,2013-05-13 21:20:00,
2013-05-13 17:25:00,57.8,31.0,30.17,NNE,19,8.0,17.0,36,0.00,,SKC,0.00,VWS V14.01,2013-05-13 21:25:00,
2013-05-13 17:30:00,58.2,30.0,30.17,NE,46,8.0,17.0,34,0.00,,SKC,0.00,VWS V14.01,2013-05-13 21:30:00,
2013-05-13 17:35:00,58.1,29.9,30.17,North,10,9.0,16.0,34,0.00,,SKC,0.00,VWS V14.01,2013-05-13 21:35:00,
2013-05-13 17:40:00,58.1,30.6,30.17,NW,313,11.0,16.0,35,0.00,,SKC,0.00,VWS V14.01,2013-05-13 21:40:00,
2013-05-13 17:45:00,58.2,29.3,30.17,North,356,9.0,17.0,33,0.00,,SKC,0.00,VWS V14.01,2013-05-13 21:45:00,
2013-05-13 17:50:00,58.1,30.6,30.17,NNW,339,5.0,17.0,35,0.00,,SKC,0.00,VWS V14.01,2013-05-13 21:50:00,
2013-05-13 17:55:00,58.1,31.3,30.17,NNW,347,8.0,17.0,36,0.00,,SKC,0.00,VWS V14.01,2013-05-13 21:55:00,
2013-05-13 18:00:00,58.2,30.7,30.17,NNW,347,7.0,17.0,35,0.00,,SKC,0.00,VWS V14.01,2013-05-13 22:00:00,
2013-05-13 18:05:00,58.2,30.7,30.17,NE,49,5.0,10.0,35,0.00,,SKC,0.00,VWS V14.01,2013-05-13 22:05:00,
2013-05-13 18:10:00,58.4,32.2,30.17,WSW,248,5.0,12.0,37,0.00,,SKC,0.00,VWS V14.01,2013-05-13 22:10:00,
2013-05-13 18:15:00,58.5,30.2,30.17,NNW,329,7.0,16.0,34,0.00,,SKC,0.00,VWS V14.01,2013-05-13 22:15:00,
2013-05-13 18:20:00,58.2,30.7,30.17,NW,319,4.0,16.0,35,0.00,,SKC,0.00,VWS V14.01,2013-05-13 22:20:00,
2013-05-13 18:25:00,58.2,30.7,30.17,NNW,339,4.0,16.0,35,0.00,,SKC,0.00,VWS V14.01,2013-05-13 22:25:00,
2013-05-13 18:30:00,58.1,32.0,30.16,NNW,334,9.0,16.0,37,0.00,,SKC,0.00,VWS V14.01,2013-05-13 22:30:00,
2013-05-13 18:35:00,58.1,31.3,30.17,NNW,345,2.0,13.0,36,0.00,,SKC,0.00,VWS V14.01,2013-05-13 22:35:00,
2013-05-13 18:40:00,57.9,31.1,30.16,NNW,343,5.0,13.0,36,0.00,,SKC,0.00,VWS V14.01,2013-05-13 22:40:00,
2013-05-13 18:45:00,58.1,32.0,30.16,North,354,1.0,13.0,37,0.00,,SKC,0.00,VWS V14.01,2013-05-13 22:45:00,
2013-05-13 18:50:00,58.1,29.9,30.16,North,354,6.0,14.0,34,0.00,,SKC,0.00,VWS V14.01,2013-05-13 22:50:00,
2013-05-13 18:55:00,58.0,30.5,30.16,NNW,340,3.0,14.0,35,0.00,,SKC,0.00,VWS V14.01,2013-05-13 22:55:00,
2013-05-13 19:00:00,57.8,31.0,30.16,NNW,328,2.0,14.0,36,0.00,,SKC,0.00,VWS V14.01,2013-05-13 23:00:00,
2013-05-13 19:05:00,57.4,32.0,30.16,NW,321,6.0,12.0,38,0.00,,SKC,0.00,VWS V14.01,2013-05-13 23:05:00,
2013-05-13 19:10:00,57.2,31.2,30.16,West,270,1.0,12.0,37,0.00,,SKC,0.00,VWS V14.01,2013-05-13 23:10:00,
2013-05-13 19:15:00,57.4,31.4,30.16,NNW,335,4.0,12.0,37,0.00,,SKC,0.00,VWS V14.01,2013-05-13 23:15:00,
2013-05-13 19:20:00,57.6,31.5,30.16,North,360,3.0,12.0,37,0.00,,SKC,0.00,VWS V14.01,2013-05-13 23:20:00,
2013-05-13 19:25:00,57.5,31.5,30.16,West,278,4.0,14.0,37,0.00,,SKC,0.00,VWS V14.01,2013-05-13 23:25:00,
2013-05-13 19:30:00,57.5,31.5,30.16,SW,222,1.0,14.0,37,0.00,,SKC,0.00,VWS V14.01,2013-05-13 23:30:00,
2013-05-13 19:35:00,57.9,32.5,30.16,NNW,339,3.0,4.0,38,0.00,,SKC,0.00,VWS V14.01,2013-05-13 23:35:00,
2013-05-13 19:40:00,57.5,32.1,30.16,NW,305,2.0,5.0,38,0.00,,SKC,0.00,VWS V14.01,2013-05-13 23:40:00,
2013-05-13 19:45:00,57.1,31.8,30.16,North,352,7.0,9.0,38,0.00,,SKC,0.00,VWS V14.01,2013-05-13 23:45:00,
2013-05-13 19:50:00,56.7,31.4,30.16,NNW,338,8.0,9.0,38,0.00,,SKC,0.00,VWS V14.01,2013-05-13 23:50:00,
2013-05-13 19:55:00,56.3,32.3,30.16,NNE,27,5.0,9.0,40,0.00,,SKC,0.00,VWS V14.01,2013-05-13 23:55:00,
2013-05-13 20:00:00,55.8,31.2,30.17,NNW,346,7.0,9.0,39,0.00,,SKC,0.00,VWS V14.01,2013-05-14 00:00:00,
2013-05-13 20:05:00,55.5,31.6,30.17,NW,309,1.0,11.0,40,0.00,,SKC,0.00,VWS V14.01,2013-05-14 00:05:00,
2013-05-13 20:10:00,55.1,31.2,30.17,NNE,16,4.0,11.0,40,0.00,,SKC,0.00,VWS V14.01,2013-05-14 00:10:00,
2013-05-13 20:15:00,54.9,31.7,30.17,WSW,252,2.0,11.0,41,0.00,,SKC,0.00,VWS V14.01,2013-05-14 00:15:00,
2013-05-13 20:20:00,54.6,32.0,30.17,NNW,329,3.0,11.0,42,0.00,,SKC,0.00,VWS V14.01,2013-05-14 00:20:00,
2013-05-13 20:25:00,54.2,31.6,30.17,NNE,26,1.0,11.0,42,0.00,,SKC,0.00,VWS V14.01,2013-05-14 00:25:00,
2013-05-13 20:30:00,53.8,31.9,30.17,NW,311,0.0,11.0,43,0.00,,SKC,0.00,VWS V14.01,2013-05-14 00:30:00,
2013-05-13 20:35:00,53.5,31.6,30.18,North,8,0.0,2.0,43,0.00,,SKC,0.00,VWS V14.01,2013-05-14 00:35:00,
2013-05-13 20:40:00,53.2,32.4,30.18,ENE,57,0.0,2.0,45,0.00,,SKC,0.00,VWS V14.01,2013-05-14 00:40:00,
2013-05-13 20:45:00,52.7,32.5,30.18,ENE,57,1.0,2.0,46,0.00,,SKC,0.00,VWS V14.01,2013-05-14 00:45:00,
2013-05-13 20:50:00,52.2,32.6,30.18,ENE,57,0.0,2.0,47,0.00,,SKC,0.00,VWS V14.01,2013-05-14 00:50:00,
2013-05-13 20:55:00,51.8,32.2,30.18,ENE,57,0.0,2.0,47,0.00,,SKC,0.00,VWS V14.01,2013-05-14 00:55:00,
2013-05-13 21:00:00,51.4,32.9,30.19,ENE,57,0.0,2.0,49,0.00,,SKC,0.00,VWS V14.01,2013-05-14 01:00:00,
2013-05-13 21:05:00,50.9,32.9,30.19,ENE,57,0.0,0.0,50,0.00,,SKC,0.00,VWS V14.01,2013-05-14 01:05:00,
2013-05-13 21:10:00,50.3,32.9,30.19,ENE,57,0.0,0.0,51,0.00,,SKC,0.00,VWS V14.01,2013-05-14 01:10:00,
2013-05-13 21:15:00,49.7,32.8,30.20,NE,56,0.0,0.0,52,0.00,,SKC,0.00,VWS V14.01,2013-05-14 01:15:00,
2013-05-13 21:20:00,49.2,32.8,30.20,NE,56,0.0,0.0,53,0.00,,SKC,0.00,VWS V14.01,2013-05-14 01:20:00,
2013-05-13 21:25:00,48.6,34.1,30.20,ENE,57,0.0,0.0,57,0.00,,SKC,0.00,VWS V14.01,2013-05-14 01:25:00,
2013-05-13 21:30:00,47.9,34.3,30.20,NE,56,0.0,0.0,59,0.00,,SKC,0.00,VWS V14.01,2013-05-14 01:30:00,
2013-05-13 21:35:00,47.3,35.0,30.20,ENE,57,0.0,1.0,62,0.00,,SKC,0.00,VWS V14.01,2013-05-14 01:35:00,
2013-05-13 21:40:00,46.7,34.8,30.21,ENE,57,0.0,1.0,63,0.00,,SKC,0.00,VWS V14.01,2013-05-14 01:40:00,
2013-05-13 21:45:00,46.1,34.6,30.21,NE,56,0.0,1.0,64,0.00,,SKC,0.00,VWS V14.01,2013-05-14 01:45:00,
2013-05-13 21:50:00,45.6,35.3,30.21,ENE,57,0.0,1.0,67,0.00,,SKC,0.00,VWS V14.01,2013-05-14 01:50:00,
2013-05-13 21:55:00,45.1,34.8,30.21,NE,56,0.0,1.0,67,0.00,,SKC,0.00,VWS V14.01,2013-05-14 01:55:00,
2013-05-13 22:00:00,44.9,35.0,30.21,NE,56,0.0,1.0,68,0.00,,SKC,0.00,VWS V14.01,2013-05-14 02:00:00,
2013-05-13 22:05:00,44.8,34.5,30.22,ENE,57,0.0,1.0,67,0.00,,SKC,0.00,VWS V14.01,2013-05-14 02:05:00,
2013-05-13 22:10:00,44.8,34.5,30.22,NE,56,0.0,1.0,67,0.00,,SKC,0.00,VWS V14.01,2013-05-14 02:10:00,
2013-05-13 22:15:00,44.5,34.2,30.22,NE,56,0.0,1.0,67,0.00,,SKC,0.00,VWS V14.01,2013-05-14 02:15:00,
2013-05-13 22:20:00,44.3,35.2,30.22,NE,56,0.0,1.0,70,0.00,,SKC,0.00,VWS V14.01,2013-05-14 02:20:00,
2013-05-13 22:25:00,44.0,35.2,30.23,ENE,57,0.0,1.0,71,0.00,,SKC,0.00,VWS V14.01,2013-05-14 02:25:00,
2013-05-13 22:30:00,44.0,34.5,30.23,ENE,57,0.0,1.0,69,0.00,,SKC,0.00,VWS V14.01,2013-05-14 02:30:00,
2013-05-13 22:35:00,43.9,34.8,30.23,ENE,57,0.0,0.0,70,0.00,,SKC,0.00,VWS V14.01,2013-05-14 02:35:00,
2013-05-13 22:40:00,43.7,34.6,30.23,NE,56,0.0,0.0,70,0.00,,SKC,0.00,VWS V14.01,2013-05-14 02:40:00,
2013-05-13 22:45:00,43.7,34.6,30.23,ENE,57,0.0,1.0,70,0.00,,SKC,0.00,VWS V14.01,2013-05-14 02:45:00,
2013-05-13 22:50:00,43.7,34.9,30.24,ENE,57,0.0,1.0,71,0.00,,SKC,0.00,VWS V14.01,2013-05-14 02:50:00,
2013-05-13 22:55:00,43.5,35.1,30.24,ENE,57,0.0,1.0,72,0.00,,SKC,0.00,VWS V14.01,2013-05-14 02:55:00,
2013-05-13 23:00:00,42.9,35.5,30.24,ENE,57,0.0,1.0,75,0.00,,SKC,0.00,VWS V14.01,2013-05-14 03:00:00,
2013-05-13 23:05:00,42.5,35.5,30.24,ENE,57,0.0,1.0,76,0.00,,SKC,0.00,VWS V14.01,2013-05-14 03:05:00,
2013-05-13 23:10:00,42.3,35.6,30.24,ENE,57,0.0,1.0,77,0.00,,SKC,0.00,VWS V14.01,2013-05-14 03:10:00,
2013-05-13 23:15:00,42.0,35.7,30.24,ENE,57,0.0,1.0,78,0.00,,SKC,0.00,VWS V14.01,2013-05-14 03:15:00,
2013-05-13 23:20:00,41.8,35.8,30.24,ENE,57,0.0,1.0,79,0.00,,SKC,0.00,VWS V14.01,2013-05-14 03:20:00,
2013-05-13 23:25:00,41.7,35.4,30.24,NE,56,0.0,1.0,78,0.00,,SKC,0.00,VWS V14.01,2013-05-14 03:25:00,
2013-05-13 23:30:00,41.6,35.6,30.24,NE,56,0.0,1.0,79,0.00,,SKC,0.00,VWS V14.01,2013-05-14 03:30:00,
2013-05-13 23:35:00,41.2,35.5,30.24,NE,56,0.0,0.0,80,0.00,,SKC,0.00,VWS V14.01,2013-05-14 03:35:00,
2013-05-13 23:40:00,40.8,35.4,30.25,NE,56,0.0,0.0,81,0.00,,SKC,0.00,VWS V14.01,2013-05-14 03:40:00,
2013-05-13 23:45:00,40.4,35.7,30.25,ENE,57,0.0,1.0,83,0.00,,SKC,0.00,VWS V14.01,2013-05-14 03:45:00,
2013-05-13 23:50:00,40.1,35.4,30.25,ENE,57,0.0,1.0,83,0.00,,SKC,0.00,VWS V14.01,2013-05-14 03:50:00,
2013-05-13 23:55:00,39.8,35.1,30.25,ENE,57,0.0,1.0,83,0.00,,SKC,0.00,VWS V14.01,2013-05-14 03:55:00,